Flight Track Log - Related Links

Times and Time Zones

All times are in EDT time to prevent confusion due to time zone crossing. See the TRS423 flight status page for this flight to view local times or setup timezone preferences in your user account.

Time Position Orientation Groundspeed Altitude Reporting Facility
EDT Latitude Longitude Course Direction KTS MPH feet Rate Location/Type
Thu 02:40:55 PM 28.4167 -81.3000 161° South 173 199 500  Level Orlando TRACON
Thu 02:42:07 PM 28.3333 -81.2667 161° South 254 292 2,500 2,091 Climbing Orlando TRACON
Thu 02:43:07 PM 28.3333 -81.2000 90° East 254 292 5,100 2,238 Climbing Orlando TRACON
Thu 02:44:13 PM 28.4167 -81.1833 10° North 285 328 7,200 1,831 Climbing Orlando TRACON
Thu 02:46:04 PM 28.5647 -81.2214 347° North 326 375 10,500 1,649 Climbing Jacksonville Center
Thu 02:47:04 PM 28.6569 -81.2483 346° North 332 382 11,900 1,250 Climbing Jacksonville Center
Thu 02:48:04 PM 28.7575 -81.2797 345° North 351 404 13,000 1,400 Climbing Jacksonville Center
Thu 02:49:04 PM 28.8603 -81.3136 344° North 369 425 14,700 1,550 Climbing Jacksonville Center
Thu 02:50:04 PM 28.9628 -81.3478 344° North 374 430 16,100 1,500 Climbing Jacksonville Center
Thu 02:51:04 PM 29.0719 -81.3817 345° North 385 443 17,700 1,412 Climbing Jacksonville Center
Thu 02:52:03 PM 29.1847 -81.3989 352° North 391 450 18,900 1,311 Climbing Jacksonville Center
Thu 02:53:03 PM 29.2997 -81.4139 354° North 406 467 20,300 1,438 Climbing Jacksonville Center
Thu 02:54:04 PM 29.4189 -81.4217 357° North 417 480 21,800 1,438 Climbing Jacksonville Center
Thu 02:55:04 PM 29.5400 -81.4342 355° North 427 491 23,200 1,261 Climbing Jacksonville Center
Thu 02:56:03 PM 29.6633 -81.4467 355° North 437 503 24,300 1,050 Climbing Jacksonville Center
Thu 02:57:04 PM 29.7928 -81.4589 355° North 450 518 25,300 1,000 Climbing Jacksonville Center
Thu 02:58:03 PM 29.9203 -81.4692 356° North 456 525 26,300 1,008 Climbing Jacksonville Center
Thu 02:59:03 PM 30.0500 -81.4839 354° North 462 532 27,300 942 Climbing Jacksonville Center
Thu 03:00:04 PM 30.1856 -81.4772 North 468 539 28,200 1,140 Climbing Jacksonville Center
Thu 03:01:04 PM 30.3169 -81.4728 North 468 539 29,600 1,250 Climbing Jacksonville Center
Thu 03:02:04 PM 30.4486 -81.4661 North 468 539 30,700 1,160 Climbing Jacksonville Center
Thu 03:03:03 PM 30.5781 -81.4642 North 468 539 31,900 1,000 Climbing Jacksonville Center
Thu 03:04:04 PM 30.7072 -81.4597 North 468 539 32,700 545 Climbing Jacksonville Center
Thu 03:05:04 PM 30.8347 -81.4531 North 457 526 33,000 150 Climbing Jacksonville Center
Thu 03:06:04 PM 30.9494 -81.4489 North 462 532 33,000  Level Jacksonville Center
Thu 03:07:04 PM 31.0767 -81.4444 North 462 532 33,000  Level Jacksonville Center
Thu 03:08:04 PM 31.1950 -81.3794 25° Northeast 455 524 33,000  Level Jacksonville Center
Thu 03:09:04 PM 31.3089 -81.2950 32° Northeast 461 531 33,000  Level Jacksonville Center
Thu 03:10:04 PM 31.4183 -81.2056 35° Northeast 474 545 33,000  Level Jacksonville Center
Thu 03:11:04 PM 31.5444 -81.1081 33° Northeast 484 557 33,000  Level Jacksonville Center
Thu 03:12:04 PM 31.6558 -81.0206 34° Northeast 484 557 33,000  Level Jacksonville Center
Thu 03:13:04 PM 31.7592 -80.9428 33° Northeast 484 557 33,000  Level Jacksonville Center
Thu 03:14:04 PM 31.8806 -80.8447 34° Northeast 478 550 33,000  Level Jacksonville Center
Thu 03:15:04 PM 31.9836 -80.7642 34° Northeast 483 556 33,000  Level Jacksonville Center
Thu 03:16:04 PM 32.1094 -80.6706 32° Northeast 483 556 33,000 -50 Level Jacksonville Center
Thu 03:17:04 PM 32.2103 -80.5844 36° Northeast 483 556 32,900  Descending Jacksonville Center
Thu 03:18:04 PM 32.3233 -80.4981 33° Northeast 483 556 33,000 50 Climbing Jacksonville Center
Thu 03:19:04 PM 32.4364 -80.4064 34° Northeast 483 556 33,000  Level Jacksonville Center
Thu 03:20:04 PM 32.5494 -80.3147 34° Northeast 483 556 33,000  Level Jacksonville Center
Thu 03:21:04 PM 32.6644 -80.2225 34° Northeast 483 556 33,000  Level Jacksonville Center
Thu 03:22:04 PM 32.7772 -80.1328 34° Northeast 483 556 33,000  Level Jacksonville Center
Thu 03:23:04 PM 32.8881 -80.0378 36° Northeast 483 556 33,000  Level Jacksonville Center
Thu 03:24:04 PM 32.9983 -79.9353 38° Northeast 493 567 33,000  Level Jacksonville Center
Thu 03:25:04 PM 33.1044 -79.8325 39° Northeast 498 573 33,000  Level Jacksonville Center
Thu 03:26:04 PM 33.2125 -79.7319 38° Northeast 498 573 33,000  Level Jacksonville Center
Thu 03:27:04 PM 33.3203 -79.6239 40° Northeast 498 573 33,000  Level Jacksonville Center
Thu 03:28:04 PM 33.4261 -79.5206 39° Northeast 498 573 33,000  Level Jacksonville Center
Thu 03:29:04 PM 33.5319 -79.4192 39° Northeast 493 567 33,000  Level Jacksonville Center
Thu 03:30:04 PM 33.6394 -79.3128 39° Northeast 488 562 33,000  Level Jacksonville Center
Thu 03:31:04 PM 33.7431 -79.2136 39° Northeast 481 554 33,000  Level Jacksonville Center
Thu 03:32:04 PM 33.8486 -79.1067 40° Northeast 481 554 33,000  Level Jacksonville Center
Thu 03:33:04 PM 33.9536 -78.9994 40° Northeast 486 559 33,000  Level Jacksonville Center
Thu 03:34:04 PM 34.0611 -78.8969 38° Northeast 486 559 33,000  Level Jacksonville Center
Thu 03:35:40 PM 34.2375 -78.7194 40° Northeast 478 550 33,000  Level Washington Center
Thu 03:36:38 PM 34.3422 -78.6178 39° Northeast 483 556 33,000  Level Washington Center
Thu 03:37:39 PM 34.4492 -78.5083 40° Northeast 488 562 33,000  Level Washington Center
Thu 03:38:39 PM 34.5542 -78.3986 41° Northeast 494 568 33,000  Level Washington Center
Thu 03:39:39 PM 34.6608 -78.2939 39° Northeast 489 563 33,000  Level Washington Center
Thu 03:40:38 PM 34.7675 -78.1861 40° Northeast 489 563 33,000  Level Washington Center
Thu 03:41:38 PM 34.8594 -78.0853 42° Northeast 489 563 33,000  Level Washington Center
Thu 03:42:40 PM 34.9617 -77.9769 41° Northeast 494 568 33,000  Level Washington Center
Thu 03:43:40 PM 35.0703 -77.8708 39° Northeast 489 563 33,000  Level Washington Center
Thu 03:44:38 PM 35.1725 -77.7644 40° Northeast 489 563 33,000  Level Washington Center
Thu 03:45:40 PM 35.2744 -77.6578 40° Northeast 489 563 33,000  Level Washington Center
Thu 03:46:40 PM 35.3806 -77.5511 39° Northeast 489 563 33,000  Level Washington Center
Thu 03:47:38 PM 35.4886 -77.4542 36° Northeast 489 563 33,000  Level Washington Center
Thu 03:48:38 PM 35.5983 -77.3597 35° Northeast 483 556 33,000  Level Washington Center
Thu 03:49:40 PM 35.7083 -77.2650 35° Northeast 478 550 33,000  Level Washington Center
Thu 03:50:40 PM 35.8161 -77.1700 36° Northeast 478 550 33,000  Level Washington Center
Thu 03:51:37 PM 35.9194 -77.0719 38° Northeast 473 544 33,000 -102 Level Washington Center
Thu 03:52:38 PM 36.0269 -76.9814 34° Northeast 468 539 32,800 -590 Descending Washington Center
Thu 03:53:39 PM 36.1325 -76.8831 37° Northeast 468 539 31,800 -984 Descending Washington Center
Thu 03:54:40 PM 36.2419 -76.7922 34° Northeast 468 539 30,800 -992 Descending Washington Center
Thu 03:55:40 PM 36.3472 -76.6931 37° Northeast 468 539 29,800 -958 Descending Washington Center
Thu 03:56:39 PM 36.4544 -76.5992 35° Northeast 468 539 28,900 -400 Descending Washington Center
Thu 03:57:40 PM 36.5614 -76.5022 36° Northeast 468 539 29,000 50 Climbing Washington Center
Thu 03:58:38 PM 36.6664 -76.4075 36° Northeast 468 539 29,000  Level Washington Center
Thu 03:59:38 PM 36.7819 -76.3000 37° Northeast 468 539 29,000  Level Washington Center
Thu 04:00:39 PM 36.8889 -76.2047 35° Northeast 468 539 29,000  Level Washington Center
Thu 04:01:40 PM 36.9997 -76.1511 21° North 484 557 29,000  Level Washington Center
Thu 04:02:40 PM 37.1272 -76.0817 23° Northeast 472 543 29,000  Level Washington Center
Thu 04:03:38 PM 37.2442 -76.0172 24° Northeast 459 528 29,000 -356 Level Washington Center
Thu 04:04:38 PM 37.3633 -75.9550 23° Northeast 453 521 28,300 -843 Descending Washington Center
Thu 04:05:39 PM 37.4803 -75.8928 23° Northeast 453 521 27,300 -992 Descending Washington Center
Thu 04:06:39 PM 37.5931 -75.8197 27° Northeast 453 521 26,300 -1,008 Descending Washington Center
Thu 04:07:38 PM 37.6997 -75.7389 31° Northeast 447 514 25,300 -650 Descending Washington Center
Thu 04:08:39 PM 37.8061 -75.6575 31° Northeast 447 514 25,000 -148 Descending Washington Center
Thu 04:09:40 PM 37.9125 -75.5761 31° Northeast 442 509 25,000  Level Washington Center
Thu 04:10:40 PM 38.0167 -75.4969 31° Northeast 447 514 25,000  Level Washington Center
Thu 04:11:39 PM 38.1272 -75.4281 26° Northeast 447 514 25,000 -403 Level Washington Center
Thu 04:12:39 PM 38.2375 -75.3592 26° Northeast 434 499 24,200 -1,438 Descending Washington Center
Thu 04:13:40 PM 38.3311 -75.2925 29° Northeast 428 493 22,100 -2,218 Descending Washington Center
Thu 04:14:38 PM 38.4333 -75.2286 26° Northeast 415 478 19,800 -2,288 Descending Washington Center
Thu 04:15:38 PM 38.5308 -75.1644 27° Northeast 401 461 17,600 -2,115 Descending Washington Center
Thu 04:16:40 PM 38.6267 -75.1053 26° Northeast 388 447 15,500 -1,300 Descending Washington Center
Thu 04:17:38 PM 38.7203 -75.0436 27° Northeast 377 434 15,000 -252 Descending Washington Center
Thu 04:18:39 PM 38.8117 -74.9869 26° Northeast 367 422 15,000  Level Washington Center
Thu 04:19:39 PM 38.9072 -74.9433 20° North 362 417 15,000  Level Washington Center
Thu 04:20:40 PM 39.0053 -74.9372 North 349 402 15,000 -1,186 Level Washington Center
Thu 04:22:31 PM 39.2000 -74.9167 North 343 395 11,600 -1,509 Descending Philadelphia TRACON
Thu 04:23:31 PM 39.2833 -74.9167 360° North 282 325 10,700 -1,150 Descending Philadelphia TRACON
Thu 04:24:31 PM 39.3667 -74.9000 North 285 328 9,300 -950 Descending Philadelphia TRACON
Thu 04:25:31 PM 39.4333 -74.9333 339° North 269 310 8,800 -550 Descending Philadelphia TRACON
Thu 04:26:31 PM 39.5000 -74.9833 330° Northwest 267 307 8,200 -800 Descending Philadelphia TRACON
Thu 04:27:31 PM 39.5667 -75.0167 339° North 266 306 7,200 -1,041 Descending Philadelphia TRACON
Thu 04:28:32 PM 39.6333 -75.0667 330° Northwest 263 303 6,100 -843 Descending Philadelphia TRACON
Thu 04:29:32 PM 39.6833 -75.1167 322° Northwest 195 224 5,500 -1,050 Descending Philadelphia TRACON
Thu 04:30:32 PM 39.6833 -75.1667 270° West 172 198 4,000 -1,400 Descending Philadelphia TRACON
Thu 04:31:32 PM 39.7333 -75.1667 360° North 170 196 2,700 -1,000 Descending Philadelphia TRACON
Thu 04:32:32 PM 39.7833 -75.1833 346° North 179 206 2,000 -700 Descending Philadelphia TRACON

Login

Don't have an account? Register now (free) for customized features, flight alerts, and more!